createdAt,value
2022-08-21T00:00:28.306Z,101007.25
2022-08-21T00:02:57.917Z,101017.88
2022-08-21T00:05:26.084Z,101017.16
2022-08-21T00:07:54.880Z,100993.63
2022-08-21T00:10:21.971Z,101009.78
2022-08-21T00:12:49.341Z,101003.41
2022-08-21T00:15:19.374Z,101006.19
2022-08-21T00:17:47.253Z,101011.09
2022-08-21T00:20:16.235Z,101006.88
2022-08-21T00:22:43.500Z,101000.88
2022-08-21T00:25:12.515Z,100983.28
2022-08-21T00:27:39.725Z,100993.34
2022-08-21T00:30:08.206Z,100998.22
2022-08-21T00:32:38.631Z,100995.69
2022-08-21T00:35:07.431Z,100993.75
2022-08-21T00:37:35.373Z,100996.69
2022-08-21T00:40:02.465Z,100987.91
2022-08-21T00:42:30.945Z,100992.09
2022-08-21T00:44:57.592Z,100966.13
2022-08-21T00:47:24.184Z,100982.31
2022-08-21T00:49:50.894Z,100985.09
2022-08-21T00:52:22.829Z,100983.44
2022-08-21T00:54:50.806Z,100986.25
2022-08-21T00:57:24.208Z,100990.00
2022-08-21T00:59:56.951Z,100981.50
2022-08-21T01:02:23.628Z,100990.41
2022-08-21T01:04:50.308Z,100985.25
2022-08-21T01:07:17.811Z,100981.75
2022-08-21T01:09:47.797Z,100992.66
2022-08-21T01:12:15.737Z,100976.72
2022-08-21T01:14:43.304Z,100984.44
2022-08-21T01:17:12.430Z,100982.03
2022-08-21T01:19:39.534Z,100975.50
2022-08-21T01:22:07.841Z,100985.66
2022-08-21T01:24:34.686Z,100986.50
2022-08-21T01:27:01.781Z,100984.81
2022-08-21T01:29:36.794Z,100985.78
2022-08-21T01:32:08.303Z,100991.50
2022-08-21T01:34:37.327Z,100974.06
2022-08-21T01:37:03.963Z,100987.72
2022-08-21T01:39:32.484Z,100987.00
2022-08-21T01:41:59.130Z,100987.31
2022-08-21T01:44:26.810Z,100966.25
2022-08-21T01:46:53.590Z,100988.56
2022-08-21T01:49:21.026Z,100981.56
2022-08-21T01:51:47.932Z,100990.91
2022-08-21T01:54:14.726Z,100996.47
2022-08-21T01:56:46.842Z,100996.75
2022-08-21T01:59:13.513Z,100989.91
2022-08-21T02:01:40.081Z,100971.91
2022-08-21T02:04:07.393Z,100987.53
2022-08-21T02:06:34.509Z,100992.13
2022-08-21T02:09:01.372Z,100978.03
2022-08-21T02:11:27.930Z,100982.78
2022-08-21T02:13:55.913Z,100977.19
2022-08-21T02:16:22.563Z,100988.63
2022-08-21T02:18:49.202Z,100989.19
2022-08-21T02:21:15.778Z,100978.78
2022-08-21T02:23:42.410Z,100977.75
2022-08-21T02:26:09.861Z,100921.34
2022-08-21T02:28:37.418Z,100974.56
2022-08-21T02:31:06.509Z,100969.34
2022-08-21T02:33:33.203Z,100974.25
2022-08-21T02:35:59.853Z,100954.28
2022-08-21T02:38:28.819Z,100954.41
2022-08-21T02:40:56.241Z,100975.47
2022-08-21T02:43:25.386Z,100969.50
2022-08-21T02:45:52.906Z,100978.81
2022-08-21T02:48:23.604Z,100959.69
2022-08-21T02:50:55.220Z,100979.50
2022-08-21T02:53:21.948Z,100973.66
2022-08-21T02:55:51.061Z,100980.88
2022-08-21T02:58:25.710Z,100957.97
2022-08-21T03:00:52.810Z,100970.06
2022-08-21T03:03:20.985Z,100971.19
2022-08-21T03:05:48.593Z,100968.78
2022-08-21T03:08:16.127Z,100968.09
2022-08-21T03:10:45.934Z,100965.59
2022-08-21T03:13:13.325Z,100950.19
2022-08-21T03:15:40.276Z,100959.56
2022-08-21T03:18:07.416Z,100963.03
2022-08-21T03:20:37.249Z,100968.44
2022-08-21T03:23:06.172Z,100969.69
2022-08-21T03:25:42.068Z,100960.59
2022-08-21T03:28:13.135Z,100970.34
2022-08-21T03:30:40.284Z,100976.72
2022-08-21T03:33:06.835Z,100964.00
2022-08-21T03:35:34.830Z,100960.81
2022-08-21T03:38:01.409Z,100979.34
2022-08-21T03:40:28.491Z,100955.91
2022-08-21T03:42:55.087Z,100977.94
2022-08-21T03:45:22.002Z,100971.25
2022-08-21T03:47:53.674Z,100982.19
2022-08-21T03:50:20.307Z,100973.94
2022-08-21T03:52:48.219Z,100965.25
2022-08-21T03:55:14.906Z,100973.25
2022-08-21T03:57:41.515Z,100976.97
2022-08-21T04:00:09.982Z,100972.09
2022-08-21T04:02:36.579Z,100945.03
2022-08-21T04:05:04.031Z,100962.56
2022-08-21T04:07:30.565Z,100975.81
2022-08-21T04:09:58.606Z,100976.78
2022-08-21T04:12:25.179Z,100985.81
2022-08-21T04:14:52.055Z,100986.78
2022-08-21T04:17:18.814Z,100968.91
2022-08-21T04:19:46.989Z,100986.91
2022-08-21T04:22:16.365Z,100992.47
2022-08-21T04:24:43.072Z,100989.22
2022-08-21T04:27:11.059Z,100989.47
2022-08-21T04:29:40.064Z,100994.03
2022-08-21T04:32:07.143Z,100995.72
2022-08-21T04:34:33.885Z,100998.38
2022-08-21T04:37:00.557Z,100990.00
2022-08-21T04:39:29.668Z,101000.06
2022-08-21T04:41:56.695Z,100996.69
2022-08-21T04:44:24.590Z,101003.78
2022-08-21T04:46:51.223Z,101003.88
2022-08-21T04:49:17.805Z,101005.56
2022-08-21T04:51:45.709Z,100993.13
2022-08-21T04:54:17.886Z,101009.06
2022-08-21T04:56:47.917Z,101007.38
2022-08-21T04:59:18.442Z,101005.00
2022-08-21T05:01:46.804Z,101013.94
2022-08-21T05:04:17.319Z,101004.94
2022-08-21T05:06:47.375Z,101008.16
2022-08-21T05:09:17.279Z,101006.25
2022-08-21T05:11:44.572Z,100979.44
2022-08-21T05:14:11.628Z,101009.47
2022-08-21T05:16:38.541Z,101013.25
2022-08-21T05:19:07.557Z,101023.47
2022-08-21T05:21:34.515Z,101006.78
2022-08-21T05:24:01.120Z,101023.53
2022-08-21T05:26:28.309Z,101012.56
2022-08-21T05:28:54.878Z,101020.97
2022-08-21T05:31:22.824Z,101012.53
2022-08-21T05:33:49.384Z,101018.94
2022-08-21T05:36:20.026Z,101012.03
2022-08-21T05:38:46.945Z,101017.41
2022-08-21T05:41:13.699Z,101009.91
2022-08-21T05:43:40.339Z,101007.59
2022-08-21T05:46:08.194Z,101005.50
2022-08-21T05:48:36.076Z,101005.53
2022-08-21T05:51:06.426Z,100990.34
2022-08-21T05:53:34.395Z,101009.91
2022-08-21T05:56:00.961Z,101010.91
2022-08-21T05:58:27.531Z,101010.13
2022-08-21T06:00:54.089Z,101007.78
2022-08-21T06:03:24.562Z,101004.16
2022-08-21T06:05:51.571Z,100990.38
2022-08-21T06:08:19.009Z,101012.84
2022-08-21T06:10:48.992Z,101009.38
2022-08-21T06:13:17.728Z,101015.66
2022-08-21T06:15:44.421Z,100999.19
2022-08-21T06:18:11.859Z,101020.13
2022-08-21T06:20:38.938Z,101016.94
2022-08-21T06:23:05.927Z,101014.38
2022-08-21T06:25:33.293Z,101017.78
2022-08-21T06:28:06.255Z,100995.16
2022-08-21T06:30:33.231Z,101020.69
2022-08-21T06:33:00.470Z,101013.69
2022-08-21T06:35:27.680Z,101016.84
2022-08-21T06:37:54.183Z,100985.47
2022-08-21T06:40:20.818Z,101008.25
2022-08-21T06:42:48.249Z,101010.88
2022-08-21T06:45:17.086Z,101011.41
2022-08-21T06:47:43.621Z,101007.56
2022-08-21T06:50:10.321Z,101008.47
2022-08-21T06:52:37.608Z,100985.53
2022-08-21T06:55:06.724Z,101003.63
2022-08-21T06:57:33.943Z,100992.09
2022-08-21T07:00:00.572Z,101006.91
2022-08-21T07:02:28.455Z,101004.72
2022-08-21T07:04:55.116Z,100999.84
2022-08-21T07:07:21.669Z,100999.75
2022-08-21T07:09:48.453Z,101002.00
2022-08-21T07:12:15.013Z,101007.59
2022-08-21T07:14:41.653Z,101005.22
2022-08-21T07:17:08.191Z,100999.31
2022-08-21T07:19:36.430Z,100995.75
2022-08-21T07:22:03.496Z,100988.00
2022-08-21T07:24:30.519Z,100991.06
2022-08-21T07:26:57.097Z,100989.91
2022-08-21T07:29:23.727Z,100990.78
2022-08-21T07:31:50.317Z,100994.03
2022-08-21T07:34:17.483Z,100995.38
2022-08-21T07:36:45.369Z,101000.25
2022-08-21T07:39:12.687Z,100989.22
2022-08-21T07:41:39.422Z,100989.22
2022-08-21T07:44:06.568Z,100989.19
2022-08-21T07:46:33.303Z,100982.81
2022-08-21T07:49:00.030Z,100991.13
2022-08-21T07:51:28.950Z,100985.00
2022-08-21T07:53:58.815Z,100983.44
2022-08-21T07:56:25.736Z,100996.91
2022-08-21T07:58:52.529Z,100992.16
2022-08-21T08:01:19.590Z,100996.25
2022-08-21T08:03:46.769Z,100991.44
2022-08-21T08:06:13.866Z,100988.56
2022-08-21T08:08:41.667Z,100987.41
2022-08-21T08:11:10.483Z,100989.38
2022-08-21T08:13:40.033Z,100990.63
2022-08-21T08:16:07.197Z,100991.56
2022-08-21T08:18:33.834Z,100985.13
2022-08-21T08:21:00.418Z,100979.28
2022-08-21T08:23:26.963Z,100969.03
2022-08-21T08:25:53.591Z,100975.13
2022-08-21T08:28:21.564Z,100966.69
2022-08-21T08:30:48.109Z,100971.84
2022-08-21T08:33:15.831Z,100973.59
2022-08-21T08:35:43.322Z,100967.53
2022-08-21T08:38:09.914Z,100967.03
2022-08-21T08:40:43.137Z,100970.69
2022-08-21T08:43:10.120Z,100964.22
2022-08-21T08:45:46.514Z,100961.50
2022-08-21T08:48:20.745Z,100957.16
2022-08-21T08:50:50.313Z,100953.34
2022-08-21T08:53:20.683Z,100946.56
2022-08-21T08:55:49.053Z,100962.03
2022-08-21T08:58:21.202Z,100951.56
2022-08-21T09:00:51.612Z,100952.56
2022-08-21T09:03:18.913Z,100948.88
2022-08-21T09:05:48.244Z,100941.91
2022-08-21T09:08:24.158Z,100946.16
2022-08-21T09:11:01.433Z,100928.38
2022-08-21T09:13:40.280Z,100943.56
2022-08-21T09:16:16.415Z,100946.28
2022-08-21T09:18:55.347Z,100944.25
2022-08-21T09:21:29.158Z,100937.44
2022-08-21T09:24:01.093Z,100937.47
2022-08-21T09:26:32.650Z,100940.13
2022-08-21T09:29:00.537Z,100926.50
2022-08-21T09:31:31.207Z,100928.38
2022-08-21T09:33:59.573Z,100930.47
2022-08-21T09:36:34.071Z,100922.16
2022-08-21T09:39:00.750Z,100927.34
2022-08-21T09:41:29.651Z,100922.97
2022-08-21T09:43:56.410Z,100929.41
2022-08-21T09:46:25.257Z,100908.03
2022-08-21T09:48:54.874Z,100924.81
2022-08-21T09:51:24.522Z,100913.59
2022-08-21T09:53:54.914Z,100914.56
2022-08-21T09:56:28.191Z,100906.69
2022-08-21T09:58:54.882Z,100899.25
2022-08-21T10:01:24.010Z,100906.66
2022-08-21T10:04:04.992Z,100909.09
2022-08-21T10:06:31.634Z,100897.25
2022-08-21T10:09:06.413Z,100895.50
2022-08-21T10:11:34.712Z,100891.75
2022-08-21T10:14:14.208Z,100893.50
2022-08-21T10:16:52.296Z,100879.13
2022-08-21T10:19:30.014Z,100882.72
2022-08-21T10:22:03.708Z,100871.53
2022-08-21T10:24:34.019Z,100882.28
2022-08-21T10:27:12.182Z,100862.59
2022-08-21T10:29:48.449Z,100869.56
2022-08-21T10:32:30.452Z,100866.09
2022-08-21T10:35:07.502Z,100864.75
2022-08-21T10:37:46.920Z,100873.81
2022-08-21T10:40:21.977Z,100867.16
2022-08-21T10:43:02.147Z,100858.63
2022-08-21T10:45:42.981Z,100857.53
2022-08-21T10:48:16.812Z,100853.50
2022-08-21T10:50:51.529Z,100865.09
2022-08-21T10:53:37.432Z,100854.13
2022-08-21T10:56:15.921Z,100855.19
2022-08-21T10:58:50.662Z,100862.69
2022-08-21T11:01:23.831Z,100858.56
2022-08-21T11:04:06.910Z,100847.31
2022-08-21T11:06:40.192Z,100845.44
2022-08-21T11:09:14.714Z,100835.09
2022-08-21T11:11:59.024Z,100838.81
2022-08-21T11:14:40.363Z,100852.19
2022-08-21T11:17:22.337Z,100845.72
2022-08-21T11:19:54.469Z,100856.00
2022-08-21T11:22:27.413Z,100854.72
2022-08-21T11:25:01.428Z,100846.38
2022-08-21T11:27:33.985Z,100838.09
2022-08-21T11:30:02.171Z,100835.16
2022-08-21T11:32:53.825Z,100833.53
2022-08-21T11:35:32.541Z,100837.03
2022-08-21T11:38:16.508Z,100833.66
2022-08-21T11:40:53.310Z,100835.75
2022-08-21T11:43:28.647Z,100808.56
2022-08-21T11:45:58.761Z,100825.44
2022-08-21T11:48:38.009Z,100821.28
2022-08-21T11:51:10.534Z,100825.50
2022-08-21T11:53:50.914Z,100820.75
2022-08-21T11:56:26.128Z,100822.69
2022-08-21T11:58:57.878Z,100812.94
2022-08-21T12:01:31.551Z,100817.06
2022-08-21T12:04:02.941Z,100808.47
2022-08-21T12:06:31.902Z,100821.56
2022-08-21T12:09:02.080Z,100813.03
2022-08-21T12:11:30.915Z,100816.16
2022-08-21T12:14:01.172Z,100807.28
2022-08-21T12:16:32.987Z,100795.00
2022-08-21T12:19:08.243Z,100813.28
2022-08-21T12:21:50.081Z,100784.28
2022-08-21T12:24:32.789Z,100812.50
2022-08-21T12:27:02.684Z,100785.59
2022-08-21T12:29:31.466Z,100794.38
2022-08-21T12:32:00.622Z,100799.13
2022-08-21T12:34:37.321Z,100791.59
2022-08-21T12:37:15.581Z,100782.09
2022-08-21T12:39:47.442Z,100789.19
2022-08-21T12:42:19.206Z,100778.84
2022-08-21T12:44:51.234Z,100785.78
2022-08-21T12:47:27.721Z,100781.81
2022-08-21T12:50:02.367Z,100787.50
2022-08-21T12:52:38.969Z,100791.34
2022-08-21T12:55:11.920Z,100779.56
2022-08-21T12:57:41.904Z,100781.81
2022-08-21T13:00:12.411Z,100773.78
2022-08-21T13:02:44.267Z,100779.69
2022-08-21T13:05:14.602Z,100772.59
2022-08-21T13:07:46.151Z,100774.06
2022-08-21T13:10:21.082Z,100773.03
2022-08-21T13:12:48.334Z,100768.41
2022-08-21T13:15:15.164Z,100785.22
2022-08-21T13:17:48.270Z,100778.09
2022-08-21T13:20:22.195Z,100778.84
2022-08-21T13:22:48.958Z,100754.69
2022-08-21T13:25:18.338Z,100766.34
2022-08-21T13:27:58.922Z,100767.19
2022-08-21T13:30:25.791Z,100765.88
2022-08-21T13:32:56.616Z,100773.56
2022-08-21T13:35:26.746Z,100771.44
2022-08-21T13:37:55.422Z,100770.81
2022-08-21T13:40:27.322Z,100769.34
2022-08-21T13:42:54.798Z,100755.22
2022-08-21T13:45:26.470Z,100757.59
2022-08-21T13:47:54.699Z,100754.78
2022-08-21T13:50:24.348Z,100749.31
2022-08-21T13:52:58.500Z,100757.38
2022-08-21T13:55:35.812Z,100754.97
2022-08-21T13:58:04.130Z,100752.03
2022-08-21T14:00:32.371Z,100757.50
2022-08-21T14:03:05.281Z,100741.97
2022-08-21T14:05:34.135Z,100738.44
2022-08-21T14:08:05.837Z,100744.72
2022-08-21T14:10:37.440Z,100732.66
2022-08-21T14:13:06.795Z,100738.44
2022-08-21T14:15:35.859Z,100733.81
2022-08-21T14:18:13.924Z,100735.53
2022-08-21T14:20:41.179Z,100722.69
2022-08-21T14:23:07.753Z,100729.53
2022-08-21T14:25:43.795Z,100724.34
2022-08-21T14:28:27.220Z,100733.09
2022-08-21T14:30:57.531Z,100732.00
2022-08-21T14:33:27.615Z,100728.97
2022-08-21T14:35:54.910Z,100728.41
2022-08-21T14:38:23.868Z,100724.91
2022-08-21T14:40:54.095Z,100725.72
2022-08-21T14:43:21.397Z,100732.53
2022-08-21T14:45:48.791Z,100717.78
2022-08-21T14:48:15.444Z,100725.44
2022-08-21T14:50:42.267Z,100707.66
2022-08-21T14:53:10.984Z,100724.78
2022-08-21T14:55:39.416Z,100731.53
2022-08-21T14:58:08.856Z,100728.09
2022-08-21T15:00:35.845Z,100724.47
2022-08-21T15:03:03.136Z,100718.41
2022-08-21T15:05:33.831Z,100721.38
2022-08-21T15:08:01.024Z,100724.78
2022-08-21T15:10:27.845Z,100713.88
2022-08-21T15:12:54.594Z,100719.91
2022-08-21T15:15:22.751Z,100721.50
2022-08-21T15:17:49.343Z,100713.28
2022-08-21T15:20:16.176Z,100718.25
2022-08-21T15:22:47.425Z,100720.25
2022-08-21T15:25:14.575Z,100718.41
2022-08-21T15:27:41.323Z,100724.03
2022-08-21T15:30:08.656Z,100721.44
2022-08-21T15:32:36.572Z,100714.69
2022-08-21T15:35:04.052Z,100712.84
2022-08-21T15:37:30.710Z,100714.19
2022-08-21T15:39:57.511Z,100712.03
2022-08-21T15:42:26.040Z,100709.03
2022-08-21T15:44:53.703Z,100707.09
2022-08-21T15:47:23.562Z,100707.84
2022-08-21T15:49:51.578Z,100707.94
2022-08-21T15:52:20.691Z,100704.50
2022-08-21T15:54:47.743Z,100707.25
2022-08-21T15:57:18.764Z,100712.97
2022-08-21T15:59:49.381Z,100707.44
2022-08-21T16:02:19.709Z,100707.63
2022-08-21T16:04:46.282Z,100696.88
2022-08-21T16:07:14.757Z,100714.28
2022-08-21T16:09:41.354Z,100712.53
2022-08-21T16:12:10.509Z,100708.31
2022-08-21T16:14:37.777Z,100702.91
2022-08-21T16:17:05.991Z,100706.09
2022-08-21T16:19:33.523Z,100716.38
2022-08-21T16:22:00.222Z,100706.97
2022-08-21T16:24:28.236Z,100715.41
2022-08-21T16:26:57.922Z,100711.84
2022-08-21T16:29:29.413Z,100702.88
2022-08-21T16:31:56.179Z,100701.91
2022-08-21T16:34:22.720Z,100700.66
2022-08-21T16:36:49.403Z,100705.09
2022-08-21T16:39:15.987Z,100686.88
2022-08-21T16:41:43.995Z,100711.97
2022-08-21T16:44:11.178Z,100702.25
2022-08-21T16:46:40.517Z,100701.00
2022-08-21T16:49:07.538Z,100701.41
2022-08-21T16:51:34.324Z,100700.84
2022-08-21T16:54:01.014Z,100709.28
2022-08-21T16:56:27.900Z,100702.75
2022-08-21T16:58:58.119Z,100652.34
2022-08-21T17:01:28.101Z,100692.81
2022-08-21T17:03:54.745Z,100698.72
2022-08-21T17:06:23.341Z,100701.38
2022-08-21T17:08:55.673Z,100701.13
2022-08-21T17:11:36.657Z,100707.72
2022-08-21T17:14:07.940Z,100702.19
2022-08-21T17:16:35.147Z,100706.41
2022-08-21T17:19:01.723Z,100697.06
2022-08-21T17:21:28.277Z,100705.41
2022-08-21T17:23:54.848Z,100704.97
2022-08-21T17:26:21.402Z,100710.34
2022-08-21T17:28:50.907Z,100705.25
2022-08-21T17:31:21.097Z,100717.88
2022-08-21T17:33:51.142Z,100713.91
2022-08-21T17:36:18.366Z,100715.41
2022-08-21T17:38:45.022Z,100704.25
2022-08-21T17:41:12.317Z,100705.31
2022-08-21T17:43:39.729Z,100712.72
2022-08-21T17:46:07.239Z,100715.19
2022-08-21T17:48:35.274Z,100707.88
2022-08-21T17:51:03.581Z,100719.19
2022-08-21T17:53:30.179Z,100722.53
2022-08-21T17:55:56.975Z,100719.69
2022-08-21T17:58:23.712Z,100710.81
2022-08-21T18:00:50.391Z,100726.16
2022-08-21T18:03:21.457Z,100719.72
2022-08-21T18:05:51.050Z,100722.66
2022-08-21T18:08:18.078Z,100729.16
2022-08-21T18:10:48.136Z,100718.13
2022-08-21T18:13:20.893Z,100732.00
2022-08-21T18:15:51.100Z,100729.75
2022-08-21T18:18:17.993Z,100726.66
2022-08-21T18:20:44.689Z,100727.94
2022-08-21T18:23:12.821Z,100736.84
2022-08-21T18:25:39.957Z,100738.69
2022-08-21T18:28:08.009Z,100738.88
2022-08-21T18:30:39.387Z,100740.09
2022-08-21T18:33:08.477Z,100734.34
2022-08-21T18:35:35.470Z,100746.38
2022-08-21T18:38:02.111Z,100752.53
2022-08-21T18:40:31.305Z,100749.16
2022-08-21T18:43:01.059Z,100750.94
2022-08-21T18:45:28.436Z,100737.63
2022-08-21T18:47:57.532Z,100748.47
2022-08-21T18:50:26.560Z,100755.06
2022-08-21T18:52:53.771Z,100751.50
2022-08-21T18:55:42.920Z,100749.53
2022-08-21T18:58:10.034Z,100761.03
2022-08-21T19:00:44.295Z,100759.69
2022-08-21T19:03:12.053Z,100764.53
2022-08-21T19:05:38.769Z,100741.22
2022-08-21T19:08:06.350Z,100772.91
2022-08-21T19:10:32.967Z,100768.78
2022-08-21T19:13:01.368Z,100762.66
2022-08-21T19:18:18.067Z,100770.16
2022-08-21T19:20:47.409Z,100761.47
2022-08-21T19:23:16.244Z,100783.00
2022-08-21T19:25:45.559Z,100776.38
2022-08-21T19:28:25.759Z,100780.28
2022-08-21T19:30:57.168Z,100778.84
2022-08-21T19:33:28.675Z,100738.59
2022-08-21T19:35:55.633Z,100779.97
2022-08-21T19:38:22.694Z,100782.59
2022-08-21T19:40:49.809Z,100774.06
2022-08-21T19:43:16.549Z,100763.38
2022-08-21T19:45:53.481Z,100777.19
2022-08-21T19:48:20.386Z,100779.84
2022-08-21T19:50:46.930Z,100777.75
2022-08-21T19:53:13.685Z,100788.88
2022-08-21T19:55:42.792Z,100784.66
2022-08-21T20:01:16.393Z,100789.47
2022-08-21T20:03:44.914Z,100789.16
2022-08-21T20:06:20.857Z,100789.09
2022-08-21T20:08:47.751Z,100784.47
2022-08-21T20:11:19.518Z,100780.66
2022-08-21T20:13:46.204Z,100788.50
2022-08-21T20:16:14.412Z,100790.56
2022-08-21T20:18:41.545Z,100801.22
2022-08-21T20:21:08.694Z,100806.31
2022-08-21T20:23:35.605Z,100801.50
2022-08-21T20:26:10.591Z,100806.63
2022-08-21T20:28:37.628Z,100791.69
2022-08-21T20:31:06.668Z,100783.50
2022-08-21T20:33:37.929Z,100809.44
2022-08-21T20:36:05.051Z,100802.34
2022-08-21T20:38:31.632Z,100793.13
2022-08-21T20:40:58.416Z,100816.69
2022-08-21T20:43:26.622Z,100787.44
2022-08-21T20:45:55.046Z,100813.00
2022-08-21T20:48:25.295Z,100803.88
2022-08-21T20:51:00.575Z,100813.31
2022-08-21T20:56:36.085Z,100814.22
2022-08-21T20:59:10.907Z,100817.47
2022-08-21T21:01:38.432Z,100820.88
2022-08-21T21:04:18.683Z,100818.13
2022-08-21T21:06:49.933Z,100805.81
2022-08-21T21:09:40.377Z,100819.69
2022-08-21T21:12:14.825Z,100792.91
2022-08-21T21:14:45.349Z,100813.69
2022-08-21T21:17:19.036Z,100809.91
2022-08-21T21:20:01.491Z,100813.31
2022-08-21T21:22:35.173Z,100811.66
2022-08-21T21:25:07.901Z,100811.38
2022-08-21T21:27:38.152Z,100810.09
2022-08-21T21:30:12.038Z,100812.94
2022-08-21T21:32:38.866Z,100802.59
2022-08-21T21:35:07.625Z,100805.91
2022-08-21T21:37:42.130Z,100806.56
2022-08-21T21:40:25.373Z,100815.75
2022-08-21T21:43:02.822Z,100795.72
2022-08-21T21:45:37.071Z,100817.22
2022-08-21T21:48:15.757Z,100816.09
2022-08-21T21:50:54.683Z,100806.41
2022-08-21T21:53:51.660Z,100823.97
2022-08-21T21:56:29.256Z,100808.03
2022-08-21T21:59:24.383Z,100813.91
2022-08-21T22:02:06.245Z,100808.44
2022-08-21T22:04:43.176Z,100814.16
2022-08-21T22:07:28.272Z,100811.03
2022-08-21T22:10:19.688Z,100815.72
2022-08-21T22:13:09.908Z,100822.59
2022-08-21T22:15:37.917Z,100822.09
2022-08-21T22:18:08.576Z,100825.81
2022-08-21T22:20:38.330Z,100831.22
2022-08-21T22:23:10.308Z,100833.38
2022-08-21T22:25:42.686Z,100809.91
2022-08-21T22:28:12.046Z,100815.59
2022-08-21T22:30:45.213Z,100823.06
2022-08-21T22:33:15.991Z,100827.59
2022-08-21T22:35:51.727Z,100827.91
2022-08-21T22:38:21.740Z,100820.69
2022-08-21T22:40:50.545Z,100833.53
2022-08-21T22:43:20.590Z,100830.44
2022-08-21T22:45:56.649Z,100833.47
2022-08-21T22:48:25.205Z,100834.13
2022-08-21T22:50:56.652Z,100830.78
2022-08-21T22:53:25.217Z,100834.84
2022-08-21T22:55:56.821Z,100819.69
2022-08-21T22:58:27.386Z,100842.34
2022-08-21T23:00:56.992Z,100838.69
2022-08-21T23:03:30.398Z,100839.38
2022-08-21T23:05:58.781Z,100836.41
2022-08-21T23:08:30.224Z,100835.94
2022-08-21T23:11:02.330Z,100817.13
2022-08-21T23:13:40.453Z,100819.78
2022-08-21T23:16:16.288Z,100842.28
2022-08-21T23:18:56.984Z,100843.97
2022-08-21T23:21:37.108Z,100834.66
2022-08-21T23:24:25.864Z,100839.81
2022-08-21T23:30:03.056Z,100839.34
2022-08-21T23:32:53.867Z,100831.72
2022-08-21T23:35:23.944Z,100837.03
2022-08-21T23:37:58.139Z,100840.38
2022-08-21T23:40:38.029Z,100844.56
2022-08-21T23:43:27.633Z,100846.56
2022-08-21T23:46:14.300Z,100845.34
2022-08-21T23:48:52.669Z,100847.84
2022-08-21T23:51:28.935Z,100847.00
2022-08-21T23:54:09.954Z,100834.53
2022-08-21T23:56:52.392Z,100835.22
2022-08-21T23:59:29.743Z,100829.19
